createdAt,value
2023-02-16T00:01:47.390Z,-0.82
2023-02-16T00:04:20.363Z,-0.88
2023-02-16T00:06:48.759Z,-0.96
2023-02-16T00:09:18.778Z,-1.13
2023-02-16T00:12:05.693Z,-1.07
2023-02-16T00:14:35.899Z,-1.02
2023-02-16T00:17:05.001Z,-1.06
2023-02-16T00:19:36.378Z,-0.92
2023-02-16T00:22:05.578Z,-1.02
2023-02-16T00:24:35.526Z,-1.18
2023-02-16T00:27:03.666Z,-1.18
2023-02-16T00:29:35.057Z,-1.19
2023-02-16T00:32:05.764Z,-1.12
2023-02-16T00:34:36.411Z,-1.07
2023-02-16T00:37:06.413Z,-1.19
2023-02-16T00:39:36.873Z,-1.12
2023-02-16T00:42:06.988Z,-1.17
2023-02-16T00:44:38.083Z,-1.25
2023-02-16T00:47:19.742Z,-1.20
2023-02-16T00:49:49.045Z,-1.26
2023-02-16T00:52:30.730Z,-1.07
2023-02-16T00:55:01.224Z,-0.96
2023-02-16T00:57:34.031Z,-0.82
2023-02-16T01:00:08.848Z,-0.95
2023-02-16T01:02:37.206Z,-0.90
2023-02-16T01:05:05.723Z,-0.94
2023-02-16T01:07:51.586Z,-0.98
2023-02-16T01:10:38.844Z,-1.09
2023-02-16T01:13:08.435Z,-1.00
2023-02-16T01:15:37.356Z,-1.11
2023-02-16T01:18:06.213Z,-0.97
2023-02-16T01:20:36.294Z,-0.85
2023-02-16T01:23:04.681Z,-0.76
2023-02-16T01:25:36.501Z,-0.59
2023-02-16T01:28:05.102Z,-0.55
2023-02-16T01:30:33.311Z,-0.61
2023-02-16T01:33:01.474Z,-0.58
2023-02-16T01:35:34.101Z,-0.61
2023-02-16T01:38:02.628Z,-0.39
2023-02-16T01:40:42.237Z,-0.35
2023-02-16T01:43:19.551Z,-0.13
2023-02-16T01:45:55.528Z,-0.08
2023-02-16T01:48:27.804Z,-0.01
2023-02-16T01:51:03.633Z,-0.03
2023-02-16T01:53:34.622Z,-0.09
2023-02-16T01:56:06.822Z,0.05
2023-02-16T01:58:40.878Z,0.05
2023-02-16T02:01:37.362Z,0.16
2023-02-16T02:04:30.944Z,0.04
2023-02-16T02:06:59.132Z,0.04
2023-02-16T02:09:34.714Z,0.10
2023-02-16T02:12:14.228Z,0.04
2023-02-16T02:14:43.803Z,-0.04
2023-02-16T02:17:17.110Z,0.02
2023-02-16T02:19:52.830Z,0.13
2023-02-16T02:23:19.107Z,0.06
2023-02-16T02:26:26.279Z,0.06
2023-02-16T02:29:06.898Z,0.12
2023-02-16T02:31:49.674Z,0.15
2023-02-16T02:34:32.715Z,0.10
2023-02-16T02:37:12.050Z,0.11
2023-02-16T02:39:50.618Z,0.19
2023-02-16T02:42:25.468Z,0.10
2023-02-16T02:45:03.281Z,0.05
2023-02-16T02:47:38.884Z,-0.01
2023-02-16T02:50:36.386Z,-0.14
2023-02-16T02:53:07.320Z,-0.11
2023-02-16T02:55:58.467Z,-0.10
2023-02-16T02:58:45.901Z,-0.16
2023-02-16T03:01:18.579Z,-0.17
2023-02-16T03:03:49.564Z,-0.17
2023-02-16T03:06:24.186Z,-0.25
2023-02-16T03:08:56.771Z,-0.26
2023-02-16T03:11:46.969Z,-0.27
2023-02-16T03:14:19.348Z,-0.30
2023-02-16T03:17:10.384Z,-0.30
2023-02-16T03:19:58.005Z,-0.43
2023-02-16T03:22:43.997Z,-0.42
2023-02-16T03:25:30.384Z,-0.59
2023-02-16T03:28:18.956Z,-0.72
2023-02-16T03:30:48.883Z,-0.68
2023-02-16T03:33:18.880Z,-0.84
2023-02-16T03:35:47.970Z,-0.82
2023-02-16T03:38:16.326Z,-0.94
2023-02-16T03:40:46.200Z,-0.79
2023-02-16T03:43:14.548Z,-0.89
2023-02-16T03:45:44.902Z,-0.89
2023-02-16T03:48:13.537Z,-1.07
2023-02-16T03:50:43.069Z,-1.00
2023-02-16T03:53:11.242Z,-1.01
2023-02-16T03:55:41.513Z,-0.97
2023-02-16T03:58:12.057Z,-1.03
2023-02-16T04:00:41.156Z,-0.89
2023-02-16T04:03:09.973Z,-0.93
2023-02-16T04:05:39.192Z,-0.88
2023-02-16T04:08:10.009Z,-0.86
2023-02-16T04:10:40.085Z,-0.79
2023-02-16T04:13:07.419Z,-0.74
2023-02-16T04:15:36.189Z,-0.78
2023-02-16T04:18:04.666Z,-0.71
2023-02-16T04:20:34.947Z,-0.72
2023-02-16T04:23:03.944Z,-0.75
2023-02-16T04:25:33.540Z,-0.84
2023-02-16T04:28:02.014Z,-0.82
2023-02-16T04:30:32.484Z,-0.81
2023-02-16T04:33:01.109Z,-0.85
2023-02-16T04:35:29.243Z,-0.82
2023-02-16T04:37:57.426Z,-0.92
2023-02-16T04:40:25.587Z,-0.98
2023-02-16T04:42:55.104Z,-0.99
2023-02-16T04:45:23.556Z,-0.94
2023-02-16T04:47:51.821Z,-0.77
2023-02-16T04:50:20.226Z,-0.76
2023-02-16T04:52:48.372Z,-0.79
2023-02-16T04:55:16.530Z,-0.69
2023-02-16T04:57:44.698Z,-0.71
2023-02-16T05:00:15.225Z,-0.69
2023-02-16T05:02:43.412Z,-0.65
2023-02-16T05:05:11.576Z,-0.52
2023-02-16T05:07:39.956Z,-0.54
2023-02-16T05:10:09.057Z,-0.42
2023-02-16T05:12:54.816Z,-0.48
2023-02-16T05:15:24.345Z,-0.41
2023-02-16T05:17:52.563Z,-0.42
2023-02-16T05:20:41.143Z,-0.32
2023-02-16T05:23:09.668Z,-0.27
2023-02-16T05:25:37.831Z,-0.26
2023-02-16T05:28:06.475Z,-0.27
2023-02-16T05:30:36.018Z,-0.31
2023-02-16T05:33:04.334Z,-0.41
2023-02-16T05:35:34.258Z,-0.46
2023-02-16T05:38:02.424Z,-0.49
2023-02-16T05:40:30.587Z,-0.51
2023-02-16T05:42:58.805Z,-0.39
2023-02-16T05:45:27.197Z,-0.35
2023-02-16T05:47:56.881Z,-0.30
2023-02-16T05:50:25.037Z,-0.45
2023-02-16T05:52:53.200Z,-0.38
2023-02-16T05:55:21.366Z,-0.33
2023-02-16T05:57:49.520Z,-0.29
2023-02-16T06:00:18.516Z,-0.38
2023-02-16T06:02:46.840Z,-0.31
2023-02-16T06:05:16.429Z,-0.32
2023-02-16T06:07:45.458Z,-0.38
2023-02-16T06:10:13.600Z,-0.44
2023-02-16T06:12:43.935Z,-0.35
2023-02-16T06:15:13.486Z,-0.29
2023-02-16T06:17:44.576Z,-0.27
2023-02-16T06:20:13.185Z,-0.46
2023-02-16T06:22:42.796Z,-0.35
2023-02-16T06:25:11.100Z,-0.37
2023-02-16T06:27:39.295Z,-0.33
2023-02-16T06:30:09.336Z,-0.42
2023-02-16T06:32:37.595Z,-0.28
2023-02-16T06:35:06.150Z,-0.51
2023-02-16T06:37:34.322Z,-0.45
2023-02-16T06:40:03.924Z,-0.27
2023-02-16T06:42:32.081Z,-0.38
2023-02-16T06:45:00.235Z,-0.38
2023-02-16T06:47:28.903Z,-0.26
2023-02-16T06:49:57.198Z,-0.26
2023-02-16T06:52:25.534Z,-0.22
2023-02-16T06:54:53.721Z,-0.22
2023-02-16T06:57:23.313Z,0.03
2023-02-16T06:59:51.472Z,0.04
2023-02-16T07:02:19.816Z,-0.15
2023-02-16T07:04:47.974Z,-0.03
2023-02-16T07:07:16.154Z,0.07
2023-02-16T07:09:44.380Z,0.11
2023-02-16T07:12:12.954Z,0.11
2023-02-16T07:14:44.099Z,0.12
2023-02-16T07:17:12.730Z,0.25
2023-02-16T07:19:40.888Z,0.27
2023-02-16T07:22:09.066Z,0.26
2023-02-16T07:24:37.327Z,0.46
2023-02-16T07:27:05.702Z,0.41
2023-02-16T07:29:33.833Z,0.67
2023-02-16T07:32:03.818Z,0.68
2023-02-16T07:34:32.309Z,0.74
2023-02-16T07:37:00.456Z,0.82
2023-02-16T07:39:30.897Z,0.87
2023-02-16T07:41:59.048Z,0.77
2023-02-16T07:44:27.932Z,0.96
2023-02-16T07:46:56.274Z,0.91
2023-02-16T07:49:26.250Z,0.86
2023-02-16T07:51:54.807Z,0.98
2023-02-16T07:54:22.970Z,1.05
2023-02-16T07:56:51.453Z,1.10
2023-02-16T07:59:19.578Z,1.10
2023-02-16T08:01:47.779Z,1.20
2023-02-16T08:04:15.979Z,1.29
2023-02-16T08:06:47.051Z,1.24
2023-02-16T08:09:15.832Z,1.37
2023-02-16T08:11:44.174Z,1.29
2023-02-16T08:14:12.422Z,1.21
2023-02-16T08:16:40.610Z,1.21
2023-02-16T08:19:11.155Z,1.36
2023-02-16T08:21:39.745Z,1.44
2023-02-16T08:24:09.552Z,1.36
2023-02-16T08:26:39.578Z,1.42
2023-02-16T08:29:10.171Z,1.65
2023-02-16T08:31:39.047Z,1.77
2023-02-16T08:34:07.405Z,1.94
2023-02-16T08:36:38.576Z,2.12
2023-02-16T08:39:15.876Z,2.09
2023-02-16T08:41:45.907Z,2.34
2023-02-16T08:44:15.705Z,2.31
2023-02-16T08:46:45.849Z,2.37
2023-02-16T08:49:16.967Z,2.61
2023-02-16T08:51:47.281Z,2.92
2023-02-16T08:54:18.971Z,2.96
2023-02-16T08:56:48.133Z,3.19
2023-02-16T08:59:17.912Z,3.28
2023-02-16T09:01:46.393Z,3.42
2023-02-16T09:04:15.818Z,3.56
2023-02-16T09:06:46.651Z,3.82
2023-02-16T09:09:15.439Z,3.78
2023-02-16T09:11:45.982Z,4.02
2023-02-16T09:14:14.585Z,4.19
2023-02-16T09:16:45.575Z,4.16
2023-02-16T09:19:15.806Z,4.22
2023-02-16T09:21:45.096Z,4.38
2023-02-16T09:24:13.639Z,4.42
2023-02-16T09:26:42.924Z,4.32
2023-02-16T09:29:13.942Z,4.69
2023-02-16T09:31:44.275Z,4.75
2023-02-16T09:34:17.578Z,4.79
2023-02-16T09:36:47.222Z,4.91
2023-02-16T09:39:16.942Z,5.14
2023-02-16T09:42:12.226Z,5.15
2023-02-16T09:44:53.096Z,5.26
2023-02-16T09:47:25.799Z,5.38
2023-02-16T09:49:56.893Z,5.62
2023-02-16T09:52:36.058Z,5.45
2023-02-16T09:55:11.798Z,5.73
2023-02-16T09:57:47.830Z,5.72
2023-02-16T10:00:29.978Z,5.80
2023-02-16T10:03:09.395Z,5.79
2023-02-16T10:05:47.067Z,5.81
2023-02-16T10:08:20.466Z,6.20
2023-02-16T10:10:54.504Z,6.32
2023-02-16T10:13:29.205Z,6.33
2023-02-16T10:16:01.655Z,6.24
2023-02-16T10:18:34.412Z,6.43
2023-02-16T10:21:06.024Z,6.39
2023-02-16T10:23:47.718Z,6.55
2023-02-16T10:26:22.837Z,6.86
2023-02-16T10:28:54.976Z,6.89
2023-02-16T10:31:35.101Z,6.86
2023-02-16T10:34:22.569Z,7.02
2023-02-16T10:37:17.148Z,7.33
2023-02-16T10:39:53.059Z,7.43
2023-02-16T10:42:30.834Z,7.42
2023-02-16T10:45:03.375Z,7.52
2023-02-16T10:47:36.758Z,7.56
2023-02-16T10:50:05.597Z,7.48
2023-02-16T10:52:39.853Z,7.42
2023-02-16T10:55:09.020Z,7.77
2023-02-16T10:57:37.228Z,7.76
2023-02-16T11:00:11.568Z,7.66
2023-02-16T11:02:43.718Z,7.74
2023-02-16T11:05:32.562Z,8.00
2023-02-16T11:08:02.520Z,8.22
2023-02-16T11:10:46.126Z,8.26
2023-02-16T11:13:28.999Z,8.39
2023-02-16T11:15:59.837Z,8.34
2023-02-16T11:18:37.958Z,8.41
2023-02-16T11:21:07.894Z,8.38
2023-02-16T11:23:37.861Z,8.38
2023-02-16T11:26:08.874Z,8.51
2023-02-16T11:28:40.110Z,8.50
2023-02-16T11:31:15.063Z,8.46
2023-02-16T11:33:55.629Z,8.52
2023-02-16T11:36:30.484Z,8.71
2023-02-16T11:39:02.238Z,8.78
2023-02-16T11:41:33.398Z,8.94
2023-02-16T11:44:03.469Z,8.99
2023-02-16T11:46:40.806Z,9.09
2023-02-16T11:49:32.814Z,9.17
2023-02-16T11:52:01.920Z,9.04
2023-02-16T11:54:30.228Z,9.28
2023-02-16T11:57:04.733Z,9.23
2023-02-16T11:59:37.270Z,9.28
2023-02-16T12:02:45.194Z,9.32
2023-02-16T12:05:33.780Z,9.46
2023-02-16T12:08:35.225Z,9.52
2023-02-16T12:11:18.200Z,9.35
2023-02-16T12:13:56.195Z,9.36
2023-02-16T12:16:31.221Z,9.41
2023-02-16T12:19:19.011Z,9.58
2023-02-16T12:21:51.769Z,9.56
2023-02-16T12:24:34.957Z,9.53
2023-02-16T12:27:04.919Z,9.64
2023-02-16T12:29:47.741Z,9.71
2023-02-16T12:32:31.175Z,9.78
2023-02-16T12:35:12.901Z,9.67
2023-02-16T12:37:47.744Z,9.88
2023-02-16T12:40:30.444Z,9.78
2023-02-16T12:43:06.169Z,9.73
2023-02-16T12:45:37.648Z,9.79
2023-02-16T12:48:19.941Z,9.75
2023-02-16T12:50:51.151Z,9.87
2023-02-16T12:53:27.663Z,9.64
2023-02-16T12:56:00.185Z,9.71
2023-02-16T12:58:32.057Z,9.88
2023-02-16T13:01:05.510Z,9.79
2023-02-16T13:03:38.961Z,9.91
2023-02-16T13:06:19.348Z,9.79
2023-02-16T13:08:56.303Z,9.82
2023-02-16T13:11:29.354Z,9.90
2023-02-16T13:14:02.944Z,9.86
2023-02-16T13:16:40.250Z,9.86
2023-02-16T13:19:13.283Z,9.90
2023-02-16T13:22:03.699Z,9.97
2023-02-16T13:24:46.030Z,9.93
2023-02-16T13:27:29.969Z,9.94
2023-02-16T13:30:25.638Z,10.03
2023-02-16T13:33:11.613Z,10.16
2023-02-16T13:36:00.445Z,10.20
2023-02-16T13:38:57.819Z,10.12
2023-02-16T13:41:55.589Z,9.88
2023-02-16T13:44:26.884Z,9.77
2023-02-16T13:46:55.950Z,9.54
2023-02-16T13:49:36.206Z,9.48
2023-02-16T13:52:05.363Z,9.75
2023-02-16T13:54:36.400Z,9.95
2023-02-16T13:57:06.614Z,10.00
2023-02-16T14:00:00.237Z,10.32
2023-02-16T14:02:56.508Z,10.31
2023-02-16T14:05:29.415Z,10.21
2023-02-16T14:08:21.647Z,10.05
2023-02-16T14:11:10.913Z,9.94
2023-02-16T14:13:51.195Z,10.10
2023-02-16T14:16:32.555Z,10.26
2023-02-16T14:19:04.151Z,10.29
2023-02-16T14:21:38.123Z,10.26
2023-02-16T14:24:11.434Z,10.17
2023-02-16T14:26:54.975Z,10.17
2023-02-16T14:29:29.012Z,9.89
2023-02-16T14:32:02.285Z,9.96
2023-02-16T14:34:37.438Z,9.95
2023-02-16T14:37:29.069Z,9.82
2023-02-16T14:40:20.340Z,9.77
2023-02-16T14:42:59.221Z,9.74
2023-02-16T14:46:01.919Z,9.74
2023-02-16T14:48:48.400Z,9.66
2023-02-16T14:51:51.672Z,9.51
2023-02-16T14:54:50.457Z,9.54
2023-02-16T14:57:22.997Z,9.48
2023-02-16T14:59:57.223Z,9.73
2023-02-16T15:02:29.545Z,9.79
2023-02-16T15:04:59.539Z,9.64
2023-02-16T15:07:29.221Z,9.62
2023-02-16T15:09:59.595Z,9.64
2023-02-16T15:12:40.526Z,9.59
2023-02-16T15:15:10.614Z,9.52
2023-02-16T15:17:44.832Z,9.53
2023-02-16T15:20:22.265Z,9.48
2023-02-16T15:22:51.615Z,9.27
2023-02-16T15:25:25.186Z,9.22
2023-02-16T15:27:59.123Z,9.18
2023-02-16T15:30:31.777Z,9.13
2023-02-16T15:33:04.108Z,9.00
2023-02-16T15:35:37.200Z,8.88
2023-02-16T15:38:10.106Z,8.86
2023-02-16T15:40:38.924Z,8.88
2023-02-16T15:43:16.559Z,8.87
2023-02-16T15:45:50.140Z,8.91
2023-02-16T15:48:27.779Z,8.86
2023-02-16T15:51:01.626Z,8.93
2023-02-16T15:53:36.902Z,8.91
2023-02-16T15:56:23.716Z,8.89
2023-02-16T15:58:53.023Z,8.88
2023-02-16T16:01:31.520Z,8.77
2023-02-16T16:04:07.421Z,8.66
2023-02-16T16:06:37.722Z,8.81
2023-02-16T16:09:09.307Z,8.84
2023-02-16T16:11:38.413Z,8.73
2023-02-16T16:14:07.656Z,8.63
2023-02-16T16:16:36.440Z,8.71
2023-02-16T16:19:16.603Z,8.63
2023-02-16T16:21:55.618Z,8.55
2023-02-16T16:24:34.031Z,8.57
2023-02-16T16:27:06.675Z,8.49
2023-02-16T16:29:41.166Z,8.52
2023-02-16T16:32:20.522Z,8.52
2023-02-16T16:34:50.684Z,8.52
2023-02-16T16:37:28.201Z,8.29
2023-02-16T16:40:04.378Z,8.25
2023-02-16T16:42:33.616Z,8.09
2023-02-16T16:45:07.215Z,8.02
2023-02-16T16:47:39.815Z,7.87
2023-02-16T16:50:30.601Z,7.70
2023-02-16T16:52:59.034Z,7.63
2023-02-16T16:55:33.893Z,7.57
2023-02-16T16:58:04.827Z,7.55
2023-02-16T17:00:36.069Z,7.54
2023-02-16T17:03:05.920Z,7.50
2023-02-16T17:05:38.260Z,7.45
2023-02-16T17:08:06.959Z,7.39
2023-02-16T17:10:36.851Z,7.34
2023-02-16T17:13:05.128Z,7.29
2023-02-16T17:15:40.498Z,7.22
2023-02-16T17:18:15.466Z,7.23
2023-02-16T17:20:45.817Z,7.34
2023-02-16T17:23:15.616Z,7.30
2023-02-16T17:25:44.312Z,7.10
2023-02-16T17:28:14.530Z,7.24
2023-02-16T17:30:43.745Z,7.28
2023-02-16T17:33:12.285Z,7.38
2023-02-16T17:35:42.838Z,7.25
2023-02-16T17:38:14.331Z,7.20
2023-02-16T17:40:44.471Z,7.18
2023-02-16T17:43:13.972Z,7.21
2023-02-16T17:45:42.788Z,7.13
2023-02-16T17:48:16.244Z,7.06
2023-02-16T17:50:44.507Z,7.07
2023-02-16T17:53:15.633Z,7.07
2023-02-16T17:55:44.152Z,7.14
2023-02-16T17:58:12.886Z,7.22
2023-02-16T18:00:41.653Z,7.23
2023-02-16T18:03:10.250Z,7.07
2023-02-16T18:05:38.986Z,7.04
2023-02-16T18:08:07.801Z,7.03
2023-02-16T18:10:41.205Z,7.02
2023-02-16T18:13:11.533Z,7.06
2023-02-16T18:15:41.555Z,7.06
2023-02-16T18:18:10.168Z,7.00
2023-02-16T18:20:38.342Z,7.06
2023-02-16T18:23:06.560Z,7.13
2023-02-16T18:25:35.319Z,7.04
2023-02-16T18:28:05.084Z,7.05
2023-02-16T18:30:33.639Z,7.04
2023-02-16T18:33:01.799Z,7.06
2023-02-16T18:35:31.848Z,7.01
2023-02-16T18:38:00.019Z,6.97
2023-02-16T18:40:28.210Z,6.93
2023-02-16T18:42:57.106Z,7.02
2023-02-16T18:45:26.922Z,7.06
2023-02-16T18:47:55.109Z,7.08
2023-02-16T18:50:23.256Z,7.18
2023-02-16T18:52:51.433Z,7.09
2023-02-16T18:55:20.059Z,7.02
2023-02-16T18:57:48.209Z,7.03
2023-02-16T19:00:17.374Z,7.00
2023-02-16T19:02:47.254Z,6.95
2023-02-16T19:05:15.460Z,6.94
2023-02-16T19:07:43.830Z,6.98
2023-02-16T19:10:12.278Z,7.16
2023-02-16T19:12:41.594Z,7.16
2023-02-16T19:15:10.673Z,7.09
2023-02-16T19:17:39.547Z,7.25
2023-02-16T19:20:12.038Z,7.11
2023-02-16T19:22:40.221Z,6.99
2023-02-16T19:25:09.040Z,6.88
2023-02-16T19:27:37.232Z,6.86
2023-02-16T19:30:06.534Z,6.84
2023-02-16T19:32:34.876Z,6.66
2023-02-16T19:35:03.687Z,6.73
2023-02-16T19:37:33.223Z,6.84
2023-02-16T19:40:01.433Z,6.84
2023-02-16T19:42:29.842Z,6.76
2023-02-16T19:44:58.075Z,6.73
2023-02-16T19:47:26.232Z,6.84
2023-02-16T19:49:54.479Z,6.98
2023-02-16T19:52:22.663Z,6.81
2023-02-16T19:54:52.150Z,6.76
2023-02-16T19:57:20.370Z,6.77
2023-02-16T19:59:48.541Z,6.62
2023-02-16T20:02:17.150Z,6.54
2023-02-16T20:04:45.907Z,6.53
2023-02-16T20:07:14.116Z,6.60
2023-02-16T20:09:42.305Z,6.59
2023-02-16T20:12:13.656Z,6.71
2023-02-16T20:14:50.303Z,6.80
2023-02-16T20:17:18.765Z,6.78
2023-02-16T20:19:47.013Z,6.76
2023-02-16T20:22:16.761Z,6.76
2023-02-16T20:24:46.365Z,6.69
2023-02-16T20:27:16.040Z,6.72
2023-02-16T20:29:44.314Z,6.91
2023-02-16T20:32:12.688Z,6.91
2023-02-16T20:34:40.899Z,7.06
2023-02-16T20:37:09.045Z,6.95
2023-02-16T20:39:37.207Z,6.97
2023-02-16T20:42:05.503Z,6.95
2023-02-16T20:44:34.979Z,6.99
2023-02-16T20:47:03.288Z,7.07
2023-02-16T20:49:31.882Z,7.18
2023-02-16T20:52:03.771Z,7.11
2023-02-16T20:54:32.212Z,7.01
2023-02-16T20:57:00.688Z,7.09
2023-02-16T20:59:28.992Z,7.11
2023-02-16T21:02:04.542Z,7.02
2023-02-16T21:04:32.906Z,6.92
2023-02-16T21:07:01.333Z,6.91
2023-02-16T21:09:29.527Z,6.83
2023-02-16T21:11:58.521Z,6.80
2023-02-16T21:14:26.689Z,6.76
2023-02-16T21:16:54.858Z,6.74
2023-02-16T21:19:24.421Z,6.83
2023-02-16T21:21:53.282Z,6.75
2023-02-16T21:24:21.504Z,6.86
2023-02-16T21:26:49.727Z,6.68
2023-02-16T21:29:18.398Z,6.69
2023-02-16T21:31:46.616Z,6.64
2023-02-16T21:34:14.793Z,6.72
2023-02-16T21:36:44.388Z,6.58
2023-02-16T21:39:12.938Z,6.49
2023-02-16T21:41:40.172Z,6.42
2023-02-16T21:44:10.171Z,6.43
2023-02-16T21:46:40.215Z,6.50
2023-02-16T21:49:09.623Z,6.42
2023-02-16T21:51:39.750Z,6.35
2023-02-16T21:54:12.647Z,6.40
2023-02-16T21:56:43.280Z,6.32
2023-02-16T21:59:13.389Z,6.37
2023-02-16T22:01:43.764Z,6.30
2023-02-16T22:04:13.653Z,6.45
2023-02-16T22:06:44.976Z,6.39
2023-02-16T22:09:17.842Z,6.35
2023-02-16T22:11:47.246Z,6.41
2023-02-16T22:14:16.018Z,6.40
2023-02-16T22:16:47.225Z,6.45
2023-02-16T22:19:17.877Z,6.58
2023-02-16T22:21:49.474Z,6.63
2023-02-16T22:24:20.536Z,6.56
2023-02-16T22:26:50.443Z,6.44
2023-02-16T22:29:19.388Z,6.38
2023-02-16T22:31:49.879Z,6.44
2023-02-16T22:34:21.071Z,6.49
2023-02-16T22:36:49.883Z,6.58
2023-02-16T22:39:20.395Z,6.65
2023-02-16T22:41:50.735Z,6.50
2023-02-16T22:44:18.909Z,6.65
2023-02-16T22:46:47.090Z,6.63
2023-02-16T22:49:15.500Z,6.62
2023-02-16T22:51:43.746Z,6.67
2023-02-16T22:54:14.325Z,6.71
2023-02-16T22:56:44.464Z,6.76
2023-02-16T22:59:13.178Z,6.73
2023-02-16T23:01:41.672Z,6.82
2023-02-16T23:04:15.204Z,6.77
2023-02-16T23:06:44.939Z,6.83
2023-02-16T23:09:16.130Z,6.85
2023-02-16T23:11:46.481Z,6.67
2023-02-16T23:14:17.217Z,6.75
2023-02-16T23:16:46.512Z,6.77
2023-02-16T23:19:17.310Z,6.83
2023-02-16T23:21:46.127Z,6.96
2023-02-16T23:24:15.809Z,6.82
2023-02-16T23:26:45.712Z,6.79
2023-02-16T23:29:14.165Z,6.86
2023-02-16T23:31:46.677Z,6.93
2023-02-16T23:34:16.003Z,6.84
2023-02-16T23:36:44.673Z,6.80
2023-02-16T23:39:15.124Z,6.76
2023-02-16T23:41:45.118Z,6.79
2023-02-16T23:44:14.722Z,6.82
2023-02-16T23:46:42.962Z,6.79
2023-02-16T23:49:11.168Z,6.79
2023-02-16T23:51:39.313Z,6.74
2023-02-16T23:54:09.138Z,6.79
2023-02-16T23:56:37.609Z,6.73
2023-02-16T23:59:07.101Z,6.83
